Bascom, Texas
Current Conditions -  °F | °C
As of 12:53 PM on Monday 22 Dec 2014 (Local Time) from KTYR Reporting Station
Few Clouds Few Clouds  
Wind Chill: 69°   Ceiling: Unl
Heat Index: 69°   Visibility: 10mi
Dew Point: 50°   Wind: 20mph
Humidity: 51%   Direction: 210°SSW
Pressure: 29.56"   Gusts: 28mph
Location:  32.3665°N, 95.1299°W
Report Text: KTYR 221853Z 21017G24KT 10SM FEW036 21/10 A2956 RMK AO2 SLP005 T02060100
Loading
Personal Weather Stations






























Interactive Weather Map New forecast layout! Learn more

10-Day Weather Forecast

Advertisements
Track Severe Weather on mobile